sensor_id;sensor_type;location;lat;lon;timestamp;P1;durP1;ratioP1;P2;durP2;ratioP2
22378;SDS011;11357;49.990;7.370;2022-08-19T00:01:22;71.50;;;25.97;;
22378;SDS011;11357;49.990;7.370;2022-08-19T00:03:49;73.05;;;25.50;;
22378;SDS011;11357;49.990;7.370;2022-08-19T00:06:15;70.80;;;25.97;;
22378;SDS011;11357;49.990;7.370;2022-08-19T00:08:41;70.83;;;25.10;;
22378;SDS011;11357;49.990;7.370;2022-08-19T00:11:07;71.35;;;24.38;;
22378;SDS011;11357;49.990;7.370;2022-08-19T00:13:34;74.65;;;28.15;;
22378;SDS011;11357;49.990;7.370;2022-08-19T00:16:00;72.63;;;27.25;;
22378;SDS011;11357;49.990;7.370;2022-08-19T00:18:27;71.95;;;26.67;;
22378;SDS011;11357;49.990;7.370;2022-08-19T00:20:52;67.27;;;24.70;;
22378;SDS011;11357;49.990;7.370;2022-08-19T00:23:18;80.32;;;28.13;;
22378;SDS011;11357;49.990;7.370;2022-08-19T00:25:44;75.20;;;30.00;;
22378;SDS011;11357;49.990;7.370;2022-08-19T00:28:10;70.33;;;23.87;;
22378;SDS011;11357;49.990;7.370;2022-08-19T00:30:36;74.03;;;29.60;;
22378;SDS011;11357;49.990;7.370;2022-08-19T00:33:02;86.93;;;30.93;;
22378;SDS011;11357;49.990;7.370;2022-08-19T00:35:28;76.53;;;26.57;;
22378;SDS011;11357;49.990;7.370;2022-08-19T00:37:54;91.05;;;28.80;;
22378;SDS011;11357;49.990;7.370;2022-08-19T00:40:20;65.57;;;25.42;;
22378;SDS011;11357;49.990;7.370;2022-08-19T00:42:46;72.37;;;21.63;;
22378;SDS011;11357;49.990;7.370;2022-08-19T00:45:17;69.20;;;25.83;;
22378;SDS011;11357;49.990;7.370;2022-08-19T00:47:49;62.73;;;20.90;;
22378;SDS011;11357;49.990;7.370;2022-08-19T00:50:16;74.13;;;32.27;;
22378;SDS011;11357;49.990;7.370;2022-08-19T00:52:45;78.23;;;29.00;;
22378;SDS011;11357;49.990;7.370;2022-08-19T00:55:21;85.07;;;28.60;;
22378;SDS011;11357;49.990;7.370;2022-08-19T00:58:00;73.70;;;26.00;;
22378;SDS011;11357;49.990;7.370;2022-08-19T01:00:30;73.23;;;25.50;;
22378;SDS011;11357;49.990;7.370;2022-08-19T01:02:56;73.17;;;26.87;;
22378;SDS011;11357;49.990;7.370;2022-08-19T01:05:23;75.43;;;23.83;;
22378;SDS011;11357;49.990;7.370;2022-08-19T01:07:52;74.47;;;29.17;;
22378;SDS011;11357;49.990;7.370;2022-08-19T01:10:20;72.87;;;24.30;;
22378;SDS011;11357;49.990;7.370;2022-08-19T01:12:49;89.23;;;27.63;;
22378;SDS011;11357;49.990;7.370;2022-08-19T01:15:17;63.10;;;22.47;;
22378;SDS011;11357;49.990;7.370;2022-08-19T01:17:46;92.47;;;27.90;;
22378;SDS011;11357;49.990;7.370;2022-08-19T01:20:14;71.80;;;24.60;;
22378;SDS011;11357;49.990;7.370;2022-08-19T01:22:51;73.53;;;29.67;;
22378;SDS011;11357;49.990;7.370;2022-08-19T01:25:20;75.03;;;29.80;;
22378;SDS011;11357;49.990;7.370;2022-08-19T01:27:50;89.90;;;27.27;;
22378;SDS011;11357;49.990;7.370;2022-08-19T01:30:24;84.60;;;28.17;;
22378;SDS011;11357;49.990;7.370;2022-08-19T01:32:53;71.33;;;26.97;;
22378;SDS011;11357;49.990;7.370;2022-08-19T01:35:19;71.43;;;25.07;;
22378;SDS011;11357;49.990;7.370;2022-08-19T01:37:52;68.87;;;24.53;;
22378;SDS011;11357;49.990;7.370;2022-08-19T01:40:21;68.47;;;22.67;;
22378;SDS011;11357;49.990;7.370;2022-08-19T01:42:49;73.27;;;25.67;;
22378;SDS011;11357;49.990;7.370;2022-08-19T01:45:16;63.57;;;21.97;;
22378;SDS011;11357;49.990;7.370;2022-08-19T01:47:43;68.20;;;23.23;;
22378;SDS011;11357;49.990;7.370;2022-08-19T01:50:10;61.93;;;22.53;;
22378;SDS011;11357;49.990;7.370;2022-08-19T01:52:37;66.73;;;23.30;;
22378;SDS011;11357;49.990;7.370;2022-08-19T01:55:08;72.97;;;23.03;;
22378;SDS011;11357;49.990;7.370;2022-08-19T01:57:37;69.80;;;28.57;;
22378;SDS011;11357;49.990;7.370;2022-08-19T02:00:07;68.60;;;25.50;;
22378;SDS011;11357;49.990;7.370;2022-08-19T02:02:36;75.07;;;22.77;;
22378;SDS011;11357;49.990;7.370;2022-08-19T02:05:02;63.07;;;22.73;;
22378;SDS011;11357;49.990;7.370;2022-08-19T02:07:28;72.60;;;22.90;;
22378;SDS011;11357;49.990;7.370;2022-08-19T02:09:54;68.70;;;22.23;;
22378;SDS011;11357;49.990;7.370;2022-08-19T02:12:21;67.00;;;23.70;;
22378;SDS011;11357;49.990;7.370;2022-08-19T02:14:47;62.33;;;21.00;;
22378;SDS011;11357;49.990;7.370;2022-08-19T02:17:12;70.60;;;20.97;;
22378;SDS011;11357;49.990;7.370;2022-08-19T02:19:38;63.80;;;19.73;;
22378;SDS011;11357;49.990;7.370;2022-08-19T02:22:04;69.57;;;20.90;;
22378;SDS011;11357;49.990;7.370;2022-08-19T02:24:30;64.20;;;21.80;;
22378;SDS011;11357;49.990;7.370;2022-08-19T02:26:56;71.90;;;20.17;;
22378;SDS011;11357;49.990;7.370;2022-08-19T02:29:22;65.80;;;20.67;;
22378;SDS011;11357;49.990;7.370;2022-08-19T02:31:48;59.60;;;18.53;;
22378;SDS011;11357;49.990;7.370;2022-08-19T02:34:13;60.67;;;21.40;;
22378;SDS011;11357;49.990;7.370;2022-08-19T02:36:39;69.63;;;22.10;;
22378;SDS011;11357;49.990;7.370;2022-08-19T02:39:05;65.30;;;20.07;;
22378;SDS011;11357;49.990;7.370;2022-08-19T02:41:31;64.07;;;20.70;;
22378;SDS011;11357;49.990;7.370;2022-08-19T02:43:59;63.83;;;21.70;;
22378;SDS011;11357;49.990;7.370;2022-08-19T02:46:27;62.60;;;19.93;;
22378;SDS011;11357;49.990;7.370;2022-08-19T02:48:56;73.13;;;27.43;;
22378;SDS011;11357;49.990;7.370;2022-08-19T02:51:24;65.10;;;22.17;;
22378;SDS011;11357;49.990;7.370;2022-08-19T02:53:52;61.90;;;19.97;;
22378;SDS011;11357;49.990;7.370;2022-08-19T02:56:18;67.87;;;20.60;;
22378;SDS011;11357;49.990;7.370;2022-08-19T02:58:44;63.40;;;20.53;;
22378;SDS011;11357;49.990;7.370;2022-08-19T03:01:10;64.77;;;22.60;;
22378;SDS011;11357;49.990;7.370;2022-08-19T03:03:44;73.40;;;23.50;;
22378;SDS011;11357;49.990;7.370;2022-08-19T03:06:13;72.87;;;25.07;;
22378;SDS011;11357;49.990;7.370;2022-08-19T03:08:40;65.53;;;21.60;;
22378;SDS011;11357;49.990;7.370;2022-08-19T03:11:22;79.47;;;23.30;;
22378;SDS011;11357;49.990;7.370;2022-08-19T03:13:50;70.13;;;20.63;;
22378;SDS011;11357;49.990;7.370;2022-08-19T03:16:19;67.07;;;23.20;;
22378;SDS011;11357;49.990;7.370;2022-08-19T03:18:48;76.10;;;25.43;;
22378;SDS011;11357;49.990;7.370;2022-08-19T03:21:16;70.27;;;24.37;;
22378;SDS011;11357;49.990;7.370;2022-08-19T03:23:44;64.73;;;20.37;;
22378;SDS011;11357;49.990;7.370;2022-08-19T03:26:09;70.57;;;20.80;;
22378;SDS011;11357;49.990;7.370;2022-08-19T03:28:35;77.20;;;22.53;;
22378;SDS011;11357;49.990;7.370;2022-08-19T03:31:04;63.23;;;23.20;;
22378;SDS011;11357;49.990;7.370;2022-08-19T03:33:34;64.03;;;20.43;;
22378;SDS011;11357;49.990;7.370;2022-08-19T03:38:43;71.37;;;21.23;;
22378;SDS011;11357;49.990;7.370;2022-08-19T03:41:13;66.07;;;23.47;;
22378;SDS011;11357;49.990;7.370;2022-08-19T03:43:42;72.60;;;21.43;;
22378;SDS011;11357;49.990;7.370;2022-08-19T03:46:12;64.70;;;20.87;;
22378;SDS011;11357;49.990;7.370;2022-08-19T03:48:40;64.13;;;23.13;;
22378;SDS011;11357;49.990;7.370;2022-08-19T03:51:07;57.07;;;21.40;;
22378;SDS011;11357;49.990;7.370;2022-08-19T03:53:40;68.73;;;21.83;;
22378;SDS011;11357;49.990;7.370;2022-08-19T03:56:07;66.20;;;20.63;;
22378;SDS011;11357;49.990;7.370;2022-08-19T03:58:34;81.77;;;21.17;;
22378;SDS011;11357;49.990;7.370;2022-08-19T04:01:00;65.33;;;23.63;;
22378;SDS011;11357;49.990;7.370;2022-08-19T04:03:26;78.93;;;22.20;;
22378;SDS011;11357;49.990;7.370;2022-08-19T04:05:52;26.77;;;20.07;;
22378;SDS011;11357;49.990;7.370;2022-08-19T04:08:18;69.53;;;24.10;;
22378;SDS011;11357;49.990;7.370;2022-08-19T04:10:47;61.23;;;22.43;;
22378;SDS011;11357;49.990;7.370;2022-08-19T04:13:14;65.40;;;20.90;;
22378;SDS011;11357;49.990;7.370;2022-08-19T04:15:42;87.37;;;20.60;;
22378;SDS011;11357;49.990;7.370;2022-08-19T04:18:09;66.73;;;22.73;;
22378;SDS011;11357;49.990;7.370;2022-08-19T04:20:45;72.33;;;24.83;;
22378;SDS011;11357;49.990;7.370;2022-08-19T04:23:13;64.77;;;22.63;;
22378;SDS011;11357;49.990;7.370;2022-08-19T04:25:40;77.33;;;23.90;;
22378;SDS011;11357;49.990;7.370;2022-08-19T04:28:07;62.27;;;20.20;;
22378;SDS011;11357;49.990;7.370;2022-08-19T04:30:39;72.90;;;20.53;;
22378;SDS011;11357;49.990;7.370;2022-08-19T04:33:10;68.63;;;22.77;;
22378;SDS011;11357;49.990;7.370;2022-08-19T04:35:40;67.13;;;23.10;;
22378;SDS011;11357;49.990;7.370;2022-08-19T04:38:08;62.03;;;20.60;;
22378;SDS011;11357;49.990;7.370;2022-08-19T04:40:39;63.33;;;22.97;;
22378;SDS011;11357;49.990;7.370;2022-08-19T04:43:24;65.53;;;20.03;;
22378;SDS011;11357;49.990;7.370;2022-08-19T04:45:50;59.50;;;19.23;;
22378;SDS011;11357;49.990;7.370;2022-08-19T04:48:16;58.70;;;17.47;;
22378;SDS011;11357;49.990;7.370;2022-08-19T04:50:44;77.70;;;24.10;;
22378;SDS011;11357;49.990;7.370;2022-08-19T04:53:10;67.20;;;22.63;;
22378;SDS011;11357;49.990;7.370;2022-08-19T04:55:38;65.47;;;23.27;;
22378;SDS011;11357;49.990;7.370;2022-08-19T04:58:05;68.43;;;23.10;;
22378;SDS011;11357;49.990;7.370;2022-08-19T05:00:31;51.40;;;19.83;;
22378;SDS011;11357;49.990;7.370;2022-08-19T05:02:57;64.97;;;21.57;;
22378;SDS011;11357;49.990;7.370;2022-08-19T05:05:23;69.30;;;28.07;;
22378;SDS011;11357;49.990;7.370;2022-08-19T05:07:48;65.53;;;22.43;;
22378;SDS011;11357;49.990;7.370;2022-08-19T05:10:14;59.60;;;24.43;;
22378;SDS011;11357;49.990;7.370;2022-08-19T05:12:40;75.93;;;22.20;;
22378;SDS011;11357;49.990;7.370;2022-08-19T05:15:06;68.63;;;25.70;;
22378;SDS011;11357;49.990;7.370;2022-08-19T05:17:33;51.83;;;20.63;;
22378;SDS011;11357;49.990;7.370;2022-08-19T05:19:59;72.43;;;25.07;;
22378;SDS011;11357;49.990;7.370;2022-08-19T05:22:43;69.03;;;22.60;;
22378;SDS011;11357;49.990;7.370;2022-08-19T05:25:13;79.93;;;22.03;;
22378;SDS011;11357;49.990;7.370;2022-08-19T05:27:43;77.77;;;21.50;;
22378;SDS011;11357;49.990;7.370;2022-08-19T05:30:09;70.50;;;22.03;;
22378;SDS011;11357;49.990;7.370;2022-08-19T05:32:36;97.43;;;23.93;;
22378;SDS011;11357;49.990;7.370;2022-08-19T05:35:04;67.87;;;24.77;;
22378;SDS011;11357;49.990;7.370;2022-08-19T05:37:30;68.10;;;23.93;;
22378;SDS011;11357;49.990;7.370;2022-08-19T05:39:56;66.37;;;26.30;;
22378;SDS011;11357;49.990;7.370;2022-08-19T05:42:22;75.13;;;22.93;;
22378;SDS011;11357;49.990;7.370;2022-08-19T05:44:48;55.83;;;25.87;;
22378;SDS011;11357;49.990;7.370;2022-08-19T05:47:15;71.17;;;24.63;;
22378;SDS011;11357;49.990;7.370;2022-08-19T05:49:41;67.70;;;21.67;;
22378;SDS011;11357;49.990;7.370;2022-08-19T05:52:09;73.77;;;24.53;;
22378;SDS011;11357;49.990;7.370;2022-08-19T05:54:37;83.53;;;22.10;;
22378;SDS011;11357;49.990;7.370;2022-08-19T05:57:06;69.20;;;27.73;;
22378;SDS011;11357;49.990;7.370;2022-08-19T05:59:32;65.30;;;22.40;;
22378;SDS011;11357;49.990;7.370;2022-08-19T06:02:00;71.03;;;23.17;;
22378;SDS011;11357;49.990;7.370;2022-08-19T06:04:27;91.40;;;22.37;;
22378;SDS011;11357;49.990;7.370;2022-08-19T06:06:53;95.13;;;21.87;;
22378;SDS011;11357;49.990;7.370;2022-08-19T06:09:20;70.70;;;24.97;;
22378;SDS011;11357;49.990;7.370;2022-08-19T06:11:47;70.73;;;26.37;;
22378;SDS011;11357;49.990;7.370;2022-08-19T06:14:24;61.13;;;24.07;;
22378;SDS011;11357;49.990;7.370;2022-08-19T06:16:52;73.07;;;24.93;;
22378;SDS011;11357;49.990;7.370;2022-08-19T06:19:18;58.30;;;23.20;;
22378;SDS011;11357;49.990;7.370;2022-08-19T06:21:46;74.73;;;21.97;;
22378;SDS011;11357;49.990;7.370;2022-08-19T06:24:14;69.43;;;26.30;;
22378;SDS011;11357;49.990;7.370;2022-08-19T06:26:42;72.97;;;28.88;;
22378;SDS011;11357;49.990;7.370;2022-08-19T06:29:10;81.60;;;27.70;;
22378;SDS011;11357;49.990;7.370;2022-08-19T06:31:40;71.20;;;27.15;;
22378;SDS011;11357;49.990;7.370;2022-08-19T06:34:11;73.73;;;28.13;;
22378;SDS011;11357;49.990;7.370;2022-08-19T06:36:41;69.30;;;27.10;;
22378;SDS011;11357;49.990;7.370;2022-08-19T06:39:14;75.07;;;30.10;;
22378;SDS011;11357;49.990;7.370;2022-08-19T06:41:45;66.20;;;26.27;;
22378;SDS011;11357;49.990;7.370;2022-08-19T06:44:13;76.90;;;28.92;;
22378;SDS011;11357;49.990;7.370;2022-08-19T06:46:39;70.17;;;28.23;;
22378;SDS011;11357;49.990;7.370;2022-08-19T06:49:06;67.50;;;24.67;;
22378;SDS011;11357;49.990;7.370;2022-08-19T06:51:36;93.72;;;26.95;;
22378;SDS011;11357;49.990;7.370;2022-08-19T06:54:02;70.82;;;25.38;;
22378;SDS011;11357;49.990;7.370;2022-08-19T06:56:29;72.90;;;29.03;;
22378;SDS011;11357;49.990;7.370;2022-08-19T06:58:59;70.88;;;28.67;;
22378;SDS011;11357;49.990;7.370;2022-08-19T07:01:36;77.25;;;24.13;;
22378;SDS011;11357;49.990;7.370;2022-08-19T07:04:05;69.18;;;24.90;;
22378;SDS011;11357;49.990;7.370;2022-08-19T07:06:32;81.05;;;25.20;;
22378;SDS011;11357;49.990;7.370;2022-08-19T07:08:58;71.90;;;22.63;;
22378;SDS011;11357;49.990;7.370;2022-08-19T07:11:24;80.50;;;25.30;;
22378;SDS011;11357;49.990;7.370;2022-08-19T07:13:50;68.55;;;24.48;;
22378;SDS011;11357;49.990;7.370;2022-08-19T07:16:17;65.47;;;22.48;;
22378;SDS011;11357;49.990;7.370;2022-08-19T07:18:47;69.30;;;24.35;;
22378;SDS011;11357;49.990;7.370;2022-08-19T07:21:15;72.68;;;25.70;;
22378;SDS011;11357;49.990;7.370;2022-08-19T07:23:55;68.32;;;23.42;;
22378;SDS011;11357;49.990;7.370;2022-08-19T07:26:23;69.72;;;26.75;;
22378;SDS011;11357;49.990;7.370;2022-08-19T07:28:51;67.88;;;24.58;;
22378;SDS011;11357;49.990;7.370;2022-08-19T07:31:21;71.10;;;24.65;;
22378;SDS011;11357;49.990;7.370;2022-08-19T07:33:49;72.18;;;24.55;;
22378;SDS011;11357;49.990;7.370;2022-08-19T07:36:19;92.68;;;27.40;;
22378;SDS011;11357;49.990;7.370;2022-08-19T07:38:47;79.80;;;24.65;;
22378;SDS011;11357;49.990;7.370;2022-08-19T07:41:15;73.88;;;28.48;;
22378;SDS011;11357;49.990;7.370;2022-08-19T07:43:44;89.25;;;27.42;;
22378;SDS011;11357;49.990;7.370;2022-08-19T07:46:10;74.05;;;28.33;;
22378;SDS011;11357;49.990;7.370;2022-08-19T07:48:38;80.95;;;31.38;;
22378;SDS011;11357;49.990;7.370;2022-08-19T07:51:06;74.80;;;30.77;;
22378;SDS011;11357;49.990;7.370;2022-08-19T07:53:33;80.05;;;32.38;;
22378;SDS011;11357;49.990;7.370;2022-08-19T07:55:59;84.43;;;28.13;;
22378;SDS011;11357;49.990;7.370;2022-08-19T07:58:29;76.80;;;29.20;;
22378;SDS011;11357;49.990;7.370;2022-08-19T08:00:57;90.65;;;33.80;;
22378;SDS011;11357;49.990;7.370;2022-08-19T08:03:23;84.07;;;30.80;;
22378;SDS011;11357;49.990;7.370;2022-08-19T08:06:11;84.63;;;31.75;;
22378;SDS011;11357;49.990;7.370;2022-08-19T08:08:56;81.40;;;37.28;;
22378;SDS011;11357;49.990;7.370;2022-08-19T08:11:45;69.90;;;34.30;;
22378;SDS011;11357;49.990;7.370;2022-08-19T08:14:20;88.35;;;40.70;;
22378;SDS011;11357;49.990;7.370;2022-08-19T08:16:49;87.25;;;38.60;;
22378;SDS011;11357;49.990;7.370;2022-08-19T08:19:16;72.28;;;33.80;;
22378;SDS011;11357;49.990;7.370;2022-08-19T08:21:47;80.68;;;46.28;;
22378;SDS011;11357;49.990;7.370;2022-08-19T08:24:13;78.65;;;49.75;;
22378;SDS011;11357;49.990;7.370;2022-08-19T08:26:39;109.93;;;58.08;;
22378;SDS011;11357;49.990;7.370;2022-08-19T08:29:06;91.00;;;64.88;;
22378;SDS011;11357;49.990;7.370;2022-08-19T08:31:35;103.32;;;66.88;;
22378;SDS011;11357;49.990;7.370;2022-08-19T08:34:02;117.10;;;89.70;;
22378;SDS011;11357;49.990;7.370;2022-08-19T08:36:28;142.65;;;121.85;;
22378;SDS011;11357;49.990;7.370;2022-08-19T08:38:53;146.30;;;102.75;;
22378;SDS011;11357;49.990;7.370;2022-08-19T08:41:28;159.00;;;121.05;;
22378;SDS011;11357;49.990;7.370;2022-08-19T08:44:27;187.65;;;157.30;;
22378;SDS011;11357;49.990;7.370;2022-08-19T08:47:03;223.48;;;199.32;;
22378;SDS011;11357;49.990;7.370;2022-08-19T08:52:25;399.95;;;362.88;;
22378;SDS011;11357;49.990;7.370;2022-08-19T08:54:53;214.70;;;192.13;;
22378;SDS011;11357;49.990;7.370;2022-08-19T08:57:24;432.02;;;387.58;;
22378;SDS011;11357;49.990;7.370;2022-08-19T08:59:56;677.47;;;609.38;;
22378;SDS011;11357;49.990;7.370;2022-08-19T09:02:25;884.10;;;782.28;;
22378;SDS011;11357;49.990;7.370;2022-08-19T09:04:51;1656.95;;;910.42;;
22378;SDS011;11357;49.990;7.370;2022-08-19T09:12:58;1999.90;;;999.90;;
22378;SDS011;11357;49.990;7.370;2022-08-19T09:15:22;1999.90;;;999.90;;
22378;SDS011;11357;49.990;7.370;2022-08-19T09:17:59;1999.90;;;997.95;;
22378;SDS011;11357;49.990;7.370;2022-08-19T09:20:26;1999.90;;;783.38;;
22378;SDS011;11357;49.990;7.370;2022-08-19T09:22:52;1999.90;;;999.90;;
22378;SDS011;11357;49.990;7.370;2022-08-19T09:25:19;1999.90;;;999.90;;
22378;SDS011;11357;49.990;7.370;2022-08-19T09:27:47;1999.90;;;999.90;;
22378;SDS011;11357;49.990;7.370;2022-08-19T09:30:17;1999.90;;;999.90;;
22378;SDS011;11357;49.990;7.370;2022-08-19T09:32:47;1780.10;;;999.90;;
22378;SDS011;11357;49.990;7.370;2022-08-19T09:35:13;1999.90;;;999.90;;
22378;SDS011;11357;49.990;7.370;2022-08-19T09:37:40;1999.90;;;999.90;;
22378;SDS011;11357;49.990;7.370;2022-08-19T09:40:08;1999.90;;;990.10;;
22378;SDS011;11357;49.990;7.370;2022-08-19T09:42:34;1999.90;;;441.63;;
22378;SDS011;11357;49.990;7.370;2022-08-19T09:45:00;1999.90;;;999.90;;
22378;SDS011;11357;49.990;7.370;2022-08-19T09:47:28;1999.90;;;999.90;;
22378;SDS011;11357;49.990;7.370;2022-08-19T09:49:54;1999.90;;;999.90;;
22378;SDS011;11357;49.990;7.370;2022-08-19T09:52:20;1702.43;;;780.08;;
22378;SDS011;11357;49.990;7.370;2022-08-19T09:54:45;1999.90;;;355.73;;
22378;SDS011;11357;49.990;7.370;2022-08-19T09:57:11;1999.90;;;999.90;;
22378;SDS011;11357;49.990;7.370;2022-08-19T09:59:38;1999.90;;;999.90;;
22378;SDS011;11357;49.990;7.370;2022-08-19T10:02:05;1999.90;;;833.10;;
22378;SDS011;11357;49.990;7.370;2022-08-19T10:04:30;1999.90;;;999.90;;
22378;SDS011;11357;49.990;7.370;2022-08-19T10:07:15;1870.75;;;794.38;;
22378;SDS011;11357;49.990;7.370;2022-08-19T10:09:41;1999.90;;;999.90;;
22378;SDS011;11357;49.990;7.370;2022-08-19T10:22:17;1999.90;;;381.10;;
22378;SDS011;11357;49.990;7.370;2022-08-19T10:25:34;1999.90;;;663.08;;
22378;SDS011;11357;49.990;7.370;2022-08-19T10:28:00;1999.90;;;412.30;;
22378;SDS011;11357;49.990;7.370;2022-08-19T10:30:26;1999.90;;;999.90;;
22378;SDS011;11357;49.990;7.370;2022-08-19T10:32:52;1999.90;;;819.72;;
22378;SDS011;11357;49.990;7.370;2022-08-19T10:35:18;1999.90;;;999.90;;
22378;SDS011;11357;49.990;7.370;2022-08-19T10:37:43;1746.60;;;981.15;;
22378;SDS011;11357;49.990;7.370;2022-08-19T10:40:09;1999.90;;;998.05;;
22378;SDS011;11357;49.990;7.370;2022-08-19T10:42:36;1979.82;;;903.25;;
22378;SDS011;11357;49.990;7.370;2022-08-19T10:45:03;1999.90;;;999.90;;
22378;SDS011;11357;49.990;7.370;2022-08-19T10:47:31;767.70;;;697.78;;
22378;SDS011;11357;49.990;7.370;2022-08-19T10:49:58;1999.90;;;887.05;;
22378;SDS011;11357;49.990;7.370;2022-08-19T10:52:43;972.88;;;595.50;;
22378;SDS011;11357;49.990;7.370;2022-08-19T10:55:11;803.28;;;637.42;;
22378;SDS011;11357;49.990;7.370;2022-08-19T10:57:55;352.60;;;320.58;;
22378;SDS011;11357;49.990;7.370;2022-08-19T11:00:22;624.17;;;573.10;;
22378;SDS011;11357;49.990;7.370;2022-08-19T11:02:50;679.58;;;626.25;;
22378;SDS011;11357;49.990;7.370;2022-08-19T11:05:16;1097.45;;;840.83;;
22378;SDS011;11357;49.990;7.370;2022-08-19T11:07:43;866.80;;;767.03;;
22378;SDS011;11357;49.990;7.370;2022-08-19T11:10:10;805.05;;;727.80;;
22378;SDS011;11357;49.990;7.370;2022-08-19T11:12:38;780.50;;;711.85;;
22378;SDS011;11357;49.990;7.370;2022-08-19T11:15:08;105.38;;;99.43;;
22378;SDS011;11357;49.990;7.370;2022-08-19T11:17:36;66.63;;;62.10;;
22378;SDS011;11357;49.990;7.370;2022-08-19T11:20:05;37.60;;;35.25;;
22378;SDS011;11357;49.990;7.370;2022-08-19T11:22:31;65.53;;;61.90;;
22378;SDS011;11357;49.990;7.370;2022-08-19T11:24:57;72.25;;;68.25;;
22378;SDS011;11357;49.990;7.370;2022-08-19T11:27:23;60.92;;;57.67;;
22378;SDS011;11357;49.990;7.370;2022-08-19T11:29:48;7.32;;;6.38;;
22378;SDS011;11357;49.990;7.370;2022-08-19T11:32:14;588.72;;;208.57;;
22378;SDS011;11357;49.990;7.370;2022-08-19T11:34:41;29.27;;;27.48;;
22378;SDS011;11357;49.990;7.370;2022-08-19T11:37:06;9.68;;;9.02;;
22378;SDS011;11357;49.990;7.370;2022-08-19T11:39:34;24.60;;;22.88;;
22378;SDS011;11357;49.990;7.370;2022-08-19T11:42:02;12.63;;;11.52;;
22378;SDS011;11357;49.990;7.370;2022-08-19T11:44:48;9.48;;;7.43;;
22378;SDS011;11357;49.990;7.370;2022-08-19T11:47:14;7.30;;;6.45;;
22378;SDS011;11357;49.990;7.370;2022-08-19T11:49:40;7.68;;;6.88;;
22378;SDS011;11357;49.990;7.370;2022-08-19T11:52:06;18.45;;;16.52;;
22378;SDS011;11357;49.990;7.370;2022-08-19T11:54:32;9.07;;;8.15;;
22378;SDS011;11357;49.990;7.370;2022-08-19T11:56:58;20.00;;;18.42;;
22378;SDS011;11357;49.990;7.370;2022-08-19T11:59:24;7.78;;;6.72;;
22378;SDS011;11357;49.990;7.370;2022-08-19T12:01:51;8.38;;;5.47;;
22378;SDS011;11357;49.990;7.370;2022-08-19T12:04:17;15.05;;;13.90;;
22378;SDS011;11357;49.990;7.370;2022-08-19T12:06:43;8.13;;;7.10;;
22378;SDS011;11357;49.990;7.370;2022-08-19T12:09:09;16.45;;;15.30;;
22378;SDS011;11357;49.990;7.370;2022-08-19T12:11:35;6.78;;;6.13;;
22378;SDS011;11357;49.990;7.370;2022-08-19T12:14:02;10.50;;;6.30;;
22378;SDS011;11357;49.990;7.370;2022-08-19T12:16:29;9.38;;;5.10;;
22378;SDS011;11357;49.990;7.370;2022-08-19T12:18:56;16.23;;;15.07;;
22378;SDS011;11357;49.990;7.370;2022-08-19T12:21:24;23.75;;;21.67;;
22378;SDS011;11357;49.990;7.370;2022-08-19T12:23:53;9.80;;;8.80;;
22378;SDS011;11357;49.990;7.370;2022-08-19T12:26:21;19.98;;;18.52;;
22378;SDS011;11357;49.990;7.370;2022-08-19T12:28:47;110.53;;;103.95;;
22378;SDS011;11357;49.990;7.370;2022-08-19T12:31:13;229.90;;;215.65;;
22378;SDS011;11357;49.990;7.370;2022-08-19T12:33:40;312.27;;;290.88;;
22378;SDS011;11357;49.990;7.370;2022-08-19T12:36:07;187.38;;;176.07;;
22378;SDS011;11357;49.990;7.370;2022-08-19T12:38:35;346.88;;;321.90;;
22378;SDS011;11357;49.990;7.370;2022-08-19T12:41:03;526.20;;;482.73;;
22378;SDS011;11357;49.990;7.370;2022-08-19T12:43:33;591.83;;;539.25;;
22378;SDS011;11357;49.990;7.370;2022-08-19T12:45:59;926.78;;;773.85;;
22378;SDS011;11357;49.990;7.370;2022-08-19T12:48:25;1756.00;;;924.00;;
22378;SDS011;11357;49.990;7.370;2022-08-19T12:50:51;1177.70;;;891.55;;
22378;SDS011;11357;49.990;7.370;2022-08-19T12:53:17;835.80;;;751.92;;
22378;SDS011;11357;49.990;7.370;2022-08-19T12:55:43;365.98;;;341.42;;
22378;SDS011;11357;49.990;7.370;2022-08-19T12:58:09;329.38;;;307.80;;
22378;SDS011;11357;49.990;7.370;2022-08-19T13:00:35;127.90;;;120.70;;
22378;SDS011;11357;49.990;7.370;2022-08-19T13:03:01;117.10;;;110.25;;
22378;SDS011;11357;49.990;7.370;2022-08-19T13:05:29;128.10;;;120.97;;
22378;SDS011;11357;49.990;7.370;2022-08-19T13:07:57;12.60;;;11.55;;
22378;SDS011;11357;49.990;7.370;2022-08-19T13:10:26;21.45;;;20.15;;
22378;SDS011;11357;49.990;7.370;2022-08-19T13:12:54;11.50;;;8.15;;
22378;SDS011;11357;49.990;7.370;2022-08-19T13:15:20;12.63;;;11.38;;
22378;SDS011;11357;49.990;7.370;2022-08-19T13:17:47;7.95;;;7.05;;
22378;SDS011;11357;49.990;7.370;2022-08-19T13:20:14;7.20;;;6.50;;
22378;SDS011;11357;49.990;7.370;2022-08-19T13:22:42;7.35;;;6.65;;
22378;SDS011;11357;49.990;7.370;2022-08-19T13:25:09;8.20;;;6.70;;
22378;SDS011;11357;49.990;7.370;2022-08-19T13:27:35;9.68;;;6.50;;
22378;SDS011;11357;49.990;7.370;2022-08-19T13:30:02;9.10;;;6.80;;
22378;SDS011;11357;49.990;7.370;2022-08-19T13:32:48;13.50;;;12.35;;
22378;SDS011;11357;49.990;7.370;2022-08-19T13:35:32;10.88;;;8.35;;
22378;SDS011;11357;49.990;7.370;2022-08-19T13:37:57;9.73;;;7.75;;
22378;SDS011;11357;49.990;7.370;2022-08-19T13:40:24;9.93;;;8.27;;
22378;SDS011;11357;49.990;7.370;2022-08-19T13:42:52;12.13;;;10.35;;
22378;SDS011;11357;49.990;7.370;2022-08-19T13:45:20;18.83;;;15.98;;
22378;SDS011;11357;49.990;7.370;2022-08-19T13:47:48;22.73;;;19.20;;
22378;SDS011;11357;49.990;7.370;2022-08-19T13:50:17;44.90;;;42.17;;
22378;SDS011;11357;49.990;7.370;2022-08-19T13:52:44;121.95;;;114.82;;
22378;SDS011;11357;49.990;7.370;2022-08-19T13:55:12;90.88;;;85.45;;
22378;SDS011;11357;49.990;7.370;2022-08-19T13:57:39;165.50;;;156.05;;
22378;SDS011;11357;49.990;7.370;2022-08-19T14:00:06;45.45;;;42.63;;
22378;SDS011;11357;49.990;7.370;2022-08-19T14:02:37;83.05;;;78.45;;
22378;SDS011;11357;49.990;7.370;2022-08-19T14:05:05;48.55;;;45.63;;
22378;SDS011;11357;49.990;7.370;2022-08-19T14:07:32;105.13;;;98.97;;
22378;SDS011;11357;49.990;7.370;2022-08-19T14:09:57;95.20;;;89.03;;
22378;SDS011;11357;49.990;7.370;2022-08-19T14:12:23;69.53;;;65.13;;
22378;SDS011;11357;49.990;7.370;2022-08-19T14:14:49;213.13;;;199.25;;
22378;SDS011;11357;49.990;7.370;2022-08-19T14:17:14;14.73;;;13.38;;
22378;SDS011;11357;49.990;7.370;2022-08-19T14:19:41;13.02;;;11.80;;
22378;SDS011;11357;49.990;7.370;2022-08-19T14:22:08;7.70;;;6.90;;
22378;SDS011;11357;49.990;7.370;2022-08-19T14:24:34;10.23;;;9.25;;
22378;SDS011;11357;49.990;7.370;2022-08-19T14:27:04;6.70;;;6.05;;
22378;SDS011;11357;49.990;7.370;2022-08-19T14:29:31;7.25;;;6.28;;
22378;SDS011;11357;49.990;7.370;2022-08-19T14:31:57;8.35;;;7.65;;
22378;SDS011;11357;49.990;7.370;2022-08-19T14:34:24;7.50;;;5.60;;
22378;SDS011;11357;49.990;7.370;2022-08-19T14:36:51;6.85;;;6.18;;
22378;SDS011;11357;49.990;7.370;2022-08-19T14:39:17;7.57;;;6.88;;
22378;SDS011;11357;49.990;7.370;2022-08-19T14:41:43;7.57;;;6.78;;
22378;SDS011;11357;49.990;7.370;2022-08-19T14:44:10;9.45;;;6.45;;